Time;durP1;ratioP1;P1;durP2;ratioP2;P2;SDS_P1;SDS_P2;PMS_P1;PMS_P2;Temp;Humidity;BMP_temperature;BMP_pressure;BME280_temperature;BME280_humidity;BME280_pressure;Samples;Min_cycle;Max_cycle;Signal;HPM_P1;HPM_P2
2021/05/02 00:01:57;;;;;;;19.23;13.47;;;;;;;;;;5066542;28;20221;-70
2021/05/02 00:04:22;;;;;;;16.57;13.10;;;;;;;;;;5065600;28;20174;-70
2021/05/02 00:06:48;;;;;;;16.50;12.67;;;;;;;;;;5057193;28;20521;-70
2021/05/02 00:09:13;;;;;;;16.80;12.87;;;;;;;;;;5063864;28;20213;-70
2021/05/02 00:11:38;;;;;;;16.63;12.80;;;;;;;;;;5062839;28;20194;-70
2021/05/02 00:14:04;;;;;;;19.70;12.03;;;;;;;;;;5062821;28;20185;-70
2021/05/02 00:16:30;;;;;;;21.27;12.77;;;;;;;;;;5060573;28;20185;-69
2021/05/02 00:18:55;;;;;;;16.83;12.50;;;;;;;;;;5057768;28;20206;-70
2021/05/02 00:21:20;;;;;;;15.20;11.77;;;;;;;;;;5061980;28;20699;-70
2021/05/02 00:23:46;;;;;;;17.00;12.00;;;;;;;;;;5060840;28;20177;-69
2021/05/02 00:26:11;;;;;;;16.67;12.70;;;;;;;;;;5055831;28;20212;-69
2021/05/02 00:28:49;;;;;;;16.73;11.83;;;;;;;;;;5054592;28;20174;-70
2021/05/02 00:31:14;;;;;;;16.27;11.17;;;;;;;;;;5060709;28;20617;-70
2021/05/02 00:33:40;;;;;;;14.70;11.17;;;;;;;;;;5064638;28;20177;-70
2021/05/02 00:36:05;;;;;;;13.87;10.93;;;;;;;;;;5058151;28;20216;-69
2021/05/02 00:38:34;;;;;;;13.47;11.30;;;;;;;;;;5057009;28;20197;-70
2021/05/02 00:41:04;;;;;;;14.67;10.47;;;;;;;;;;5055716;28;20204;-71
2021/05/02 00:43:47;;;;;;;18.03;10.70;;;;;;;;;;5059870;28;20173;-70
2021/05/02 00:46:12;;;;;;;13.50;10.00;;;;;;;;;;5061438;28;20195;-71
2021/05/02 00:48:56;;;;;;;11.35;10.15;;;;;;;;;;5062159;28;20651;-70
2021/05/02 00:51:22;;;;;;;19.03;10.33;;;;;;;;;;5067735;28;20276;-71
2021/05/02 00:53:54;;;;;;;13.33;10.33;;;;;;;;;;5055629;28;20186;-70
2021/05/02 00:56:23;;;;;;;16.80;10.70;;;;;;;;;;5059255;28;20251;-70
2021/05/02 00:58:53;;;;;;;16.23;10.33;;;;;;;;;;5056993;28;20243;-70
2021/05/02 01:01:20;;;;;;;12.07;10.07;;;;;;;;;;5059596;28;20224;-70
2021/05/02 01:03:46;;;;;;;15.30;9.87;;;;;;;;;;5054745;28;20666;-70
2021/05/02 01:06:14;;;;;;;13.03;9.67;;;;;;;;;;5055648;28;20197;-70
2021/05/02 01:08:40;;;;;;;15.73;10.77;;;;;;;;;;5057363;28;20209;-70
2021/05/02 01:11:08;;;;;;;17.33;11.40;;;;;;;;;;5065264;28;20279;-70
2021/05/02 01:13:35;;;;;;;13.73;10.67;;;;;;;;;;5057021;28;20181;-70
2021/05/02 01:16:02;;;;;;;14.90;11.13;;;;;;;;;;5060435;28;20590;-70
2021/05/02 01:18:27;;;;;;;12.27;9.73;;;;;;;;;;5064309;28;20250;-71
2021/05/02 01:20:53;;;;;;;15.47;10.67;;;;;;;;;;5061127;28;20173;-70
2021/05/02 01:23:29;;;;;;;21.87;11.37;;;;;;;;;;5059936;28;20185;-69
2021/05/02 01:25:56;;;;;;;14.77;11.33;;;;;;;;;;5059704;28;20172;-70
2021/05/02 01:28:21;;;;;;;16.17;10.73;;;;;;;;;;5052935;28;20545;-70
2021/05/02 01:30:47;;;;;;;13.43;10.80;;;;;;;;;;5056985;28;20224;-69
2021/05/02 01:33:13;;;;;;;14.93;11.10;;;;;;;;;;5059688;28;20174;-70
2021/05/02 01:35:38;;;;;;;14.43;9.93;;;;;;;;;;5059052;28;20169;-70
2021/05/02 01:38:04;;;;;;;15.33;11.10;;;;;;;;;;5059871;28;20188;-70
2021/05/02 01:40:29;;;;;;;12.63;10.30;;;;;;;;;;5060841;28;20196;-70
2021/05/02 01:42:54;;;;;;;16.77;11.47;;;;;;;;;;5060888;28;20220;-70
2021/05/02 01:45:19;;;;;;;14.23;10.17;;;;;;;;;;5055843;28;20230;-70
2021/05/02 01:47:49;;;;;;;14.67;11.27;;;;;;;;;;5059255;28;20169;-70
2021/05/02 01:50:14;;;;;;;17.77;11.53;;;;;;;;;;5066215;28;20618;-70
2021/05/02 01:52:47;;;;;;;16.27;11.63;;;;;;;;;;5060002;28;20238;-71
2021/05/02 01:55:12;;;;;;;15.93;10.40;;;;;;;;;;5058850;28;20186;-70
2021/05/02 01:57:38;;;;;;;14.90;11.03;;;;;;;;;;5063632;28;20337;-69
2021/05/02 02:00:11;;;;;;;14.93;10.93;;;;;;;;;;5061404;28;20192;-70
2021/05/02 02:02:37;;;;;;;14.00;11.30;;;;;;;;;;5054184;28;20212;-70
2021/05/02 02:05:03;;;;;;;16.70;11.67;;;;;;;;;;5058131;28;20173;-71
2021/05/02 02:07:29;;;;;;;15.63;10.80;;;;;;;;;;5061154;28;20303;-72
2021/05/02 02:09:54;;;;;;;16.40;10.97;;;;;;;;;;5060002;28;20211;-70
2021/05/02 02:12:19;;;;;;;13.40;10.60;;;;;;;;;;5062700;28;20297;-70
2021/05/02 02:14:45;;;;;;;14.00;10.90;;;;;;;;;;5055931;28;20655;-70
2021/05/02 02:17:11;;;;;;;12.90;9.97;;;;;;;;;;5059615;28;20181;-70
2021/05/02 02:19:37;;;;;;;13.83;10.07;;;;;;;;;;5061955;28;20563;-70
2021/05/02 02:22:02;;;;;;;15.07;10.67;;;;;;;;;;5059545;28;20201;-70
2021/05/02 02:24:41;;;;;;;11.60;9.77;;;;;;;;;;5060322;28;20199;-69
2021/05/02 02:27:07;;;;;;;14.97;10.83;;;;;;;;;;5065180;28;20176;-70
2021/05/02 02:29:33;;;;;;;14.90;10.60;;;;;;;;;;5057064;28;20208;-70
2021/05/02 02:32:03;;;;;;;17.20;11.23;;;;;;;;;;5073873;28;20200;-70
2021/05/02 02:34:28;;;;;;;15.03;9.87;;;;;;;;;;5064483;28;20740;-71
2021/05/02 02:36:54;;;;;;;13.13;9.67;;;;;;;;;;5064024;28;20189;-70
2021/05/02 02:39:19;;;;;;;14.20;9.63;;;;;;;;;;5062844;28;20220;-70
2021/05/02 02:41:46;;;;;;;13.43;9.00;;;;;;;;;;5061874;28;20195;-71
2021/05/02 02:44:11;;;;;;;16.97;9.60;;;;;;;;;;5061069;28;20232;-69
2021/05/02 02:46:39;;;;;;;12.60;9.37;;;;;;;;;;5063726;28;20176;-70
2021/05/02 02:49:05;;;;;;;16.33;10.30;;;;;;;;;;5063107;28;20227;-70
2021/05/02 02:51:30;;;;;;;13.50;9.73;;;;;;;;;;5063508;28;20197;-70
2021/05/02 02:53:57;;;;;;;12.47;9.60;;;;;;;;;;5062561;28;20173;-70
2021/05/02 02:56:22;;;;;;;12.93;10.00;;;;;;;;;;5059255;28;20205;-70
2021/05/02 02:59:01;;;;;;;13.47;9.63;;;;;;;;;;5065981;28;20221;-70
2021/05/02 03:01:26;;;;;;;12.47;8.90;;;;;;;;;;5058134;28;20227;-70
2021/05/02 03:03:53;;;;;;;13.23;9.67;;;;;;;;;;5069778;28;20558;-70
2021/05/02 03:06:18;;;;;;;11.17;8.97;;;;;;;;;;5069125;28;20192;-70
2021/05/02 03:08:46;;;;;;;13.30;8.83;;;;;;;;;;5055604;28;20655;-70
2021/05/02 03:11:14;;;;;;;12.00;9.03;;;;;;;;;;5062634;28;20216;-70
2021/05/02 03:13:41;;;;;;;11.53;8.57;;;;;;;;;;5065223;28;20334;-70
2021/05/02 03:16:06;;;;;;;13.20;9.63;;;;;;;;;;5063396;28;20177;-70
2021/05/02 03:18:40;;;;;;;12.53;9.30;;;;;;;;;;5063702;28;20561;-69
2021/05/02 03:21:11;;;;;;;12.40;9.57;;;;;;;;;;5064293;28;20686;-71
2021/05/02 03:23:41;;;;;;;16.33;9.63;;;;;;;;;;5068482;28;20327;-71
2021/05/02 03:26:07;;;;;;;13.23;9.97;;;;;;;;;;5060512;28;20249;-69
2021/05/02 03:28:36;;;;;;;16.20;9.77;;;;;;;;;;5058534;28;20187;-70
2021/05/02 03:31:03;;;;;;;13.60;9.63;;;;;;;;;;5057541;28;20733;-71
2021/05/02 03:33:33;;;;;;;13.83;10.17;;;;;;;;;;5064391;28;20303;-70
2021/05/02 03:35:58;;;;;;;13.30;10.10;;;;;;;;;;5058277;28;20186;-70
2021/05/02 03:38:36;;;;;;;15.70;9.97;;;;;;;;;;5057599;28;20197;-70
2021/05/02 03:41:01;;;;;;;12.77;9.57;;;;;;;;;;5058695;28;20200;-70
2021/05/02 03:43:27;;;;;;;19.23;10.80;;;;;;;;;;5060131;28;20165;-70
2021/05/02 03:45:52;;;;;;;14.20;9.63;;;;;;;;;;5063507;28;20268;-70
2021/05/02 03:48:17;;;;;;;14.60;10.00;;;;;;;;;;5063751;28;20537;-70
2021/05/02 03:50:42;;;;;;;12.73;9.47;;;;;;;;;;5058363;28;20213;-70
2021/05/02 03:53:08;;;;;;;12.53;8.90;;;;;;;;;;5062926;28;20219;-70
2021/05/02 03:55:43;;;;;;;13.90;9.53;;;;;;;;;;5063248;28;20186;-69
2021/05/02 03:58:09;;;;;;;10.57;8.03;;;;;;;;;;5062142;28;20169;-69
2021/05/02 04:00:35;;;;;;;11.53;9.43;;;;;;;;;;5058178;28;20212;-70
2021/05/02 04:03:00;;;;;;;11.80;9.00;;;;;;;;;;5060672;28;20743;-70
2021/05/02 04:05:25;;;;;;;12.10;8.03;;;;;;;;;;5059360;28;20181;-70
2021/05/02 04:07:50;;;;;;;9.17;7.77;;;;;;;;;;5065246;28;20199;-70
2021/05/02 04:10:16;;;;;;;17.27;8.10;;;;;;;;;;5059066;28;20185;-70
2021/05/02 04:12:41;;;;;;;10.50;7.57;;;;;;;;;;5065537;28;20275;-70
2021/05/02 04:15:06;;;;;;;10.97;7.40;;;;;;;;;;5060714;28;20605;-70
2021/05/02 04:17:31;;;;;;;8.83;7.53;;;;;;;;;;5058126;28;20178;-70
2021/05/02 04:19:56;;;;;;;10.60;7.70;;;;;;;;;;5062010;28;20291;-70
2021/05/02 04:22:22;;;;;;;12.83;7.27;;;;;;;;;;5069599;28;20185;-71
2021/05/02 04:24:48;;;;;;;8.10;6.20;;;;;;;;;;5063190;28;20587;-71
2021/05/02 04:27:13;;;;;;;12.07;7.83;;;;;;;;;;5061127;28;20173;-70
2021/05/02 04:29:39;;;;;;;9.73;7.20;;;;;;;;;;5058324;28;20230;-70
2021/05/02 04:32:04;;;;;;;12.23;6.70;;;;;;;;;;5070812;28;20189;-71
2021/05/02 04:34:29;;;;;;;11.83;6.73;;;;;;;;;;5061753;28;20185;-70
2021/05/02 04:36:55;;;;;;;9.47;6.33;;;;;;;;;;5063933;28;20261;-71
2021/05/02 04:39:21;;;;;;;9.90;6.37;;;;;;;;;;5060222;28;20208;-71
2021/05/02 04:41:46;;;;;;;8.27;6.43;;;;;;;;;;5062697;28;20201;-70
2021/05/02 04:44:11;;;;;;;10.27;7.33;;;;;;;;;;5068682;28;20161;-69
2021/05/02 04:46:37;;;;;;;10.20;6.87;;;;;;;;;;5066206;28;20572;-70
2021/05/02 04:49:02;;;;;;;7.47;6.03;;;;;;;;;;5065811;28;20230;-71
2021/05/02 04:51:27;;;;;;;9.00;6.67;;;;;;;;;;5063075;28;20227;-70
2021/05/02 04:53:52;;;;;;;6.60;5.90;;;;;;;;;;5062446;28;20561;-71
2021/05/02 04:56:18;;;;;;;10.40;6.57;;;;;;;;;;5059026;28;20249;-71
2021/05/02 04:58:43;;;;;;;7.57;5.53;;;;;;;;;;5060377;28;20200;-70
2021/05/02 05:01:10;;;;;;;9.33;6.03;;;;;;;;;;5059048;28;20243;-71
2021/05/02 05:03:35;;;;;;;9.37;6.20;;;;;;;;;;5059120;28;20182;-70
2021/05/02 05:06:01;;;;;;;9.63;5.73;;;;;;;;;;5057951;28;20596;-70
2021/05/02 05:08:26;;;;;;;9.77;6.27;;;;;;;;;;5068321;28;20592;-71
2021/05/02 05:10:52;;;;;;;9.70;5.60;;;;;;;;;;5056456;28;20184;-70
2021/05/02 05:13:17;;;;;;;8.37;5.70;;;;;;;;;;5059103;28;20170;-71
2021/05/02 05:15:42;;;;;;;8.53;6.50;;;;;;;;;;5062902;28;20177;-70
2021/05/02 05:18:07;;;;;;;10.93;5.47;;;;;;;;;;5066519;28;20182;-71
2021/05/02 05:20:33;;;;;;;9.07;5.03;;;;;;;;;;5065422;28;20539;-70
2021/05/02 05:22:58;;;;;;;9.07;5.50;;;;;;;;;;5059282;28;20570;-71
2021/05/02 05:25:23;;;;;;;8.67;5.20;;;;;;;;;;5063142;28;20260;-71
2021/05/02 05:27:48;;;;;;;5.93;4.27;;;;;;;;;;5060847;28;20560;-70
2021/05/02 05:30:14;;;;;;;5.23;4.63;;;;;;;;;;5058167;28;20182;-71
2021/05/02 05:32:39;;;;;;;7.73;4.97;;;;;;;;;;5066533;28;20201;-70
2021/05/02 05:35:04;;;;;;;9.17;4.47;;;;;;;;;;5060837;28;20181;-70
2021/05/02 05:37:30;;;;;;;4.37;3.90;;;;;;;;;;5065355;28;20205;-69
2021/05/02 05:39:55;;;;;;;6.23;3.80;;;;;;;;;;5062400;28;20208;-68
2021/05/02 05:42:20;;;;;;;8.13;4.47;;;;;;;;;;5060867;28;20193;-69
2021/05/02 05:44:45;;;;;;;7.40;3.90;;;;;;;;;;5063911;28;20180;-69
2021/05/02 05:47:12;;;;;;;4.47;3.80;;;;;;;;;;5065665;28;20185;-69
2021/05/02 05:49:38;;;;;;;6.27;3.80;;;;;;;;;;5061196;28;20236;-69
2021/05/02 05:52:04;;;;;;;9.47;4.10;;;;;;;;;;5059265;28;20209;-69
2021/05/02 05:54:29;;;;;;;7.20;3.63;;;;;;;;;;5063373;28;20173;-69
2021/05/02 05:56:54;;;;;;;3.93;3.47;;;;;;;;;;5059691;28;20313;-70
2021/05/02 05:59:20;;;;;;;5.73;3.80;;;;;;;;;;5061905;28;20627;-69
2021/05/02 06:01:45;;;;;;;5.33;3.30;;;;;;;;;;5061965;28;20196;-69
2021/05/02 06:04:10;;;;;;;5.63;4.20;;;;;;;;;;5058367;28;20188;-70
2021/05/02 06:06:36;;;;;;;4.27;3.33;;;;;;;;;;5063661;28;20246;-71
2021/05/02 06:09:03;;;;;;;8.40;3.93;;;;;;;;;;5057152;28;20598;-69
2021/05/02 06:11:29;;;;;;;3.70;3.30;;;;;;;;;;5060008;28;20198;-70
2021/05/02 06:13:54;;;;;;;6.77;3.23;;;;;;;;;;5068246;28;20622;-70
2021/05/02 06:16:19;;;;;;;5.37;3.43;;;;;;;;;;5058276;28;20185;-69
2021/05/02 06:18:45;;;;;;;5.87;3.13;;;;;;;;;;5068171;28;20257;-70
2021/05/02 06:21:10;;;;;;;6.73;3.40;;;;;;;;;;5057732;28;20228;-70
2021/05/02 06:23:35;;;;;;;8.53;3.57;;;;;;;;;;5070189;28;20171;-70
2021/05/02 06:26:00;;;;;;;10.07;3.40;;;;;;;;;;5060655;28;20173;-70
2021/05/02 06:28:25;;;;;;;7.60;3.20;;;;;;;;;;5054609;28;20182;-70
2021/05/02 06:30:50;;;;;;;5.50;3.00;;;;;;;;;;5060101;28;20189;-71
2021/05/02 06:33:16;;;;;;;6.23;2.70;;;;;;;;;;5065726;28;20191;-70
2021/05/02 06:35:41;;;;;;;3.53;2.33;;;;;;;;;;5056273;28;20592;-70
2021/05/02 06:38:06;;;;;;;22.83;6.07;;;;;;;;;;5059434;28;20187;-70
2021/05/02 06:40:32;;;;;;;4.60;2.67;;;;;;;;;;5059772;28;20609;-70
2021/05/02 06:42:57;;;;;;;7.23;2.90;;;;;;;;;;5055270;28;20678;-70
2021/05/02 06:45:22;;;;;;;3.67;2.30;;;;;;;;;;5056678;28;20251;-70
2021/05/02 06:47:48;;;;;;;4.23;2.27;;;;;;;;;;5061392;28;20170;-70
2021/05/02 06:50:14;;;;;;;3.77;2.53;;;;;;;;;;5056673;28;20182;-70
2021/05/02 06:52:39;;;;;;;5.30;2.13;;;;;;;;;;5058752;28;20594;-71
2021/05/02 06:55:04;;;;;;;5.73;1.83;;;;;;;;;;5054390;28;20185;-70
2021/05/02 06:57:30;;;;;;;2.70;2.00;;;;;;;;;;5054474;28;20227;-70
2021/05/02 06:59:55;;;;;;;4.43;1.73;;;;;;;;;;5064460;28;20738;-71
2021/05/02 07:02:21;;;;;;;5.57;2.00;;;;;;;;;;5058821;28;20208;-70
2021/05/02 07:04:46;;;;;;;5.43;2.37;;;;;;;;;;5054056;28;20170;-70
2021/05/02 07:07:11;;;;;;;5.73;2.57;;;;;;;;;;5058455;28;20165;-70
2021/05/02 07:09:36;;;;;;;4.80;2.17;;;;;;;;;;5057808;28;20678;-70
2021/05/02 07:12:02;;;;;;;3.87;1.90;;;;;;;;;;5057316;28;20225;-70
2021/05/02 07:14:27;;;;;;;2.33;1.90;;;;;;;;;;5061296;28;20262;-70
2021/05/02 07:16:52;;;;;;;9.47;2.53;;;;;;;;;;5058271;28;20181;-70
2021/05/02 07:19:20;;;;;;;3.93;2.07;;;;;;;;;;5057375;28;20347;-70
2021/05/02 07:21:45;;;;;;;4.43;1.90;;;;;;;;;;5065067;28;20189;-70
2021/05/02 07:24:13;;;;;;;2.90;1.67;;;;;;;;;;5058419;28;20564;-71
2021/05/02 07:26:38;;;;;;;5.03;1.57;;;;;;;;;;5064529;28;20547;-71
2021/05/02 07:29:04;;;;;;;3.03;1.83;;;;;;;;;;5059477;28;20197;-70
2021/05/02 07:31:29;;;;;;;4.10;1.80;;;;;;;;;;5058780;28;20291;-70
2021/05/02 07:33:54;;;;;;;3.83;1.70;;;;;;;;;;5060475;28;20227;-70
2021/05/02 07:36:19;;;;;;;2.90;1.43;;;;;;;;;;5059122;28;20197;-70
2021/05/02 07:38:45;;;;;;;3.37;1.83;;;;;;;;;;5065123;28;20296;-70
2021/05/02 07:41:11;;;;;;;3.13;1.50;;;;;;;;;;5062362;28;20196;-70
2021/05/02 07:43:36;;;;;;;2.97;1.77;;;;;;;;;;5065718;28;20181;-71
2021/05/02 07:46:01;;;;;;;4.83;1.53;;;;;;;;;;5060802;28;20594;-71
2021/05/02 07:48:26;;;;;;;3.27;1.60;;;;;;;;;;5062612;28;20264;-71
2021/05/02 07:50:52;;;;;;;3.23;1.60;;;;;;;;;;5066401;28;20606;-71
2021/05/02 07:53:17;;;;;;;2.47;1.47;;;;;;;;;;5064821;28;20201;-71
2021/05/02 07:55:43;;;;;;;2.63;1.60;;;;;;;;;;5064393;28;20616;-71
2021/05/02 07:58:08;;;;;;;3.87;1.30;;;;;;;;;;5069109;28;20176;-71
2021/05/02 08:00:33;;;;;;;4.03;1.53;;;;;;;;;;5063887;28;20229;-71
2021/05/02 08:02:58;;;;;;;2.30;1.37;;;;;;;;;;5064095;28;20208;-71
2021/05/02 08:05:23;;;;;;;3.57;1.50;;;;;;;;;;5057414;28;20734;-71
2021/05/02 08:07:49;;;;;;;1.90;1.37;;;;;;;;;;5063172;28;20601;-70
2021/05/02 08:10:14;;;;;;;3.47;1.60;;;;;;;;;;5062351;28;20173;-71
2021/05/02 08:12:39;;;;;;;2.23;1.27;;;;;;;;;;5060575;28;20196;-70
2021/05/02 08:15:06;;;;;;;2.70;1.60;;;;;;;;;;5059007;28;20173;-70
2021/05/02 08:17:31;;;;;;;5.50;2.23;;;;;;;;;;5060685;28;20177;-70
2021/05/02 08:19:56;;;;;;;4.00;1.20;;;;;;;;;;5062946;28;20276;-71
2021/05/02 08:22:21;;;;;;;4.07;1.90;;;;;;;;;;5059165;28;20197;-69
2021/05/02 08:24:47;;;;;;;4.17;1.53;;;;;;;;;;5061824;28;20278;-69
2021/05/02 08:27:12;;;;;;;1.80;1.43;;;;;;;;;;5064833;28;20191;-70
2021/05/02 08:29:37;;;;;;;2.20;1.83;;;;;;;;;;5056411;28;20188;-70
2021/05/02 08:32:02;;;;;;;4.77;2.47;;;;;;;;;;5062121;28;20196;-69
2021/05/02 08:34:27;;;;;;;3.57;1.87;;;;;;;;;;5064340;28;20209;-70
2021/05/02 08:36:53;;;;;;;4.40;1.67;;;;;;;;;;5060668;28;20288;-70
2021/05/02 08:39:18;;;;;;;2.27;1.63;;;;;;;;;;5058697;28;20560;-70
2021/05/02 08:41:43;;;;;;;5.40;2.07;;;;;;;;;;5063063;28;20610;-70
2021/05/02 08:44:08;;;;;;;8.33;3.43;;;;;;;;;;5064985;28;20192;-70
2021/05/02 08:46:34;;;;;;;5.43;2.00;;;;;;;;;;5062055;28;20182;-70
2021/05/02 08:48:59;;;;;;;3.73;2.03;;;;;;;;;;5065854;28;20181;-70
2021/05/02 08:51:24;;;;;;;2.13;1.33;;;;;;;;;;5063983;28;20208;-70
2021/05/02 08:53:50;;;;;;;1.70;1.60;;;;;;;;;;5060335;28;20221;-70
2021/05/02 08:56:15;;;;;;;2.40;1.50;;;;;;;;;;5062872;28;20624;-70
2021/05/02 08:58:40;;;;;;;3.35;1.30;;;;;;;;;;5056003;28;20204;-69
2021/05/02 09:01:06;;;;;;;4.67;1.83;;;;;;;;;;5062516;28;20686;-69
2021/05/02 09:03:45;;;;;;;3.38;1.30;;;;;;;;;;5060883;28;20173;-70
2021/05/02 09:06:14;;;;;;;2.08;1.17;;;;;;;;;;5056300;28;20176;-70
2021/05/02 09:08:39;;;;;;;5.53;1.75;;;;;;;;;;5062467;28;20180;-70
2021/05/02 09:11:05;;;;;;;2.63;1.40;;;;;;;;;;5066255;28;20207;-70
2021/05/02 09:13:31;;;;;;;1.40;1.10;;;;;;;;;;5060921;28;20181;-70
2021/05/02 09:15:57;;;;;;;4.25;1.73;;;;;;;;;;5064046;28;20725;-70
2021/05/02 09:18:39;;;;;;;3.67;1.30;;;;;;;;;;5056197;28;20235;-69
2021/05/02 09:21:05;;;;;;;3.53;1.17;;;;;;;;;;5061271;28;20200;-70
2021/05/02 09:23:34;;;;;;;2.45;1.15;;;;;;;;;;5065544;28;20209;-70
2021/05/02 09:25:59;;;;;;;9.63;2.83;;;;;;;;;;5057969;28;20251;-68
2021/05/02 09:28:54;;;;;;;4.73;1.63;;;;;;;;;;5054812;28;20242;-71
2021/05/02 09:31:21;;;;;;;5.07;1.47;;;;;;;;;;5064575;28;20708;-68
2021/05/02 09:33:47;;;;;;;1.83;1.40;;;;;;;;;;5063126;28;20705;-69
2021/05/02 09:36:16;;;;;;;4.50;1.40;;;;;;;;;;5056016;28;20185;-70
2021/05/02 09:38:42;;;;;;;3.77;1.60;;;;;;;;;;5058145;28;20189;-69
2021/05/02 09:41:08;;;;;;;3.07;1.73;;;;;;;;;;5059658;28;20739;-70
2021/05/02 09:43:33;;;;;;;2.43;1.07;;;;;;;;;;5059993;28;20248;-70
2021/05/02 09:48:58;;;;;;;1.53;1.37;;;;;;;;;;5064971;28;20237;-70
2021/05/02 09:51:25;;;;;;;1.40;1.30;;;;;;;;;;5062505;28;20229;-69
2021/05/02 09:54:01;;;;;;;2.40;1.63;;;;;;;;;;5066315;28;20189;-69
2021/05/02 09:56:36;;;;;;;4.57;1.40;;;;;;;;;;5064562;28;20173;-69
2021/05/02 09:59:02;;;;;;;1.60;1.23;;;;;;;;;;5061753;28;20239;-69
2021/05/02 10:01:28;;;;;;;1.27;1.17;;;;;;;;;;5065127;28;20228;-69
2021/05/02 10:03:53;;;;;;;2.83;1.57;;;;;;;;;;5061165;28;20161;-70
2021/05/02 10:06:29;;;;;;;1.37;1.20;;;;;;;;;;5067264;28;20177;-69
2021/05/02 10:08:54;;;;;;;2.33;1.50;;;;;;;;;;5057480;28;20212;-69
2021/05/02 10:11:19;;;;;;;2.23;1.50;;;;;;;;;;5059215;28;20223;-69
2021/05/02 10:13:45;;;;;;;2.53;1.50;;;;;;;;;;5057563;28;20189;-68
2021/05/02 10:16:12;;;;;;;2.93;1.80;;;;;;;;;;5059749;28;20550;-70
2021/05/02 10:18:38;;;;;;;1.73;1.60;;;;;;;;;;5062136;28;20250;-69
2021/05/02 10:21:05;;;;;;;1.90;1.57;;;;;;;;;;5062383;28;20194;-70
2021/05/02 10:23:30;;;;;;;3.87;1.60;;;;;;;;;;5065211;28;20224;-70
2021/05/02 10:25:57;;;;;;;2.90;1.97;;;;;;;;;;5062060;28;20227;-69
2021/05/02 10:28:25;;;;;;;2.03;1.30;;;;;;;;;;5055476;28;20208;-70
2021/05/02 10:30:52;;;;;;;6.07;1.83;;;;;;;;;;5057141;28;20710;-70
2021/05/02 10:33:43;;;;;;;6.40;1.90;;;;;;;;;;5061161;28;20230;-69
2021/05/02 10:36:09;;;;;;;3.33;1.40;;;;;;;;;;5057592;28;20205;-69
2021/05/02 10:38:51;;;;;;;3.27;1.63;;;;;;;;;;5062530;28;20753;-68
2021/05/02 10:41:19;;;;;;;1.90;1.30;;;;;;;;;;5059492;28;20195;-69
2021/05/02 10:43:45;;;;;;;2.25;1.30;;;;;;;;;;5058622;28;20685;-69
2021/05/02 10:46:30;;;;;;;2.80;1.10;;;;;;;;;;5063419;28;20165;-68
2021/05/02 10:48:55;;;;;;;1.58;1.38;;;;;;;;;;5057536;28;20243;-69
2021/05/02 10:51:24;;;;;;;1.83;1.60;;;;;;;;;;5065932;28;20220;-69
2021/05/02 10:54:03;;;;;;;2.10;1.23;;;;;;;;;;5059788;28;20397;-70
2021/05/02 10:56:51;;;;;;;1.75;1.13;;;;;;;;;;5062025;28;20209;-69
2021/05/02 10:59:17;;;;;;;5.47;1.30;;;;;;;;;;5066726;28;20763;-69
2021/05/02 11:01:43;;;;;;;12.10;3.10;;;;;;;;;;5064842;28;20682;-70
2021/05/02 11:04:08;;;;;;;2.28;1.13;;;;;;;;;;5065270;28;20204;-70
2021/05/02 11:06:37;;;;;;;1.70;1.33;;;;;;;;;;5063757;28;20205;-70
2021/05/02 11:09:03;;;;;;;1.20;1.10;;;;;;;;;;5066998;28;20605;-69
2021/05/02 11:11:42;;;;;;;2.83;1.25;;;;;;;;;;5060592;28;20550;-70
2021/05/02 11:17:01;;;;;;;2.72;1.40;;;;;;;;;;5069696;28;20188;-69
2021/05/02 11:19:32;;;;;;;2.88;1.42;;;;;;;;;;5063527;28;20213;-69
2021/05/02 11:22:01;;;;;;;1.45;1.35;;;;;;;;;;5065196;28;20571;-69
2021/05/02 11:24:49;;;;;;;5.53;1.20;;;;;;;;;;5064119;28;20579;-69
2021/05/02 11:32:30;;;;;;;1.05;0.80;;;;;;;;;;5068354;28;20269;-70
2021/05/02 11:34:56;;;;;;;0.90;0.60;;;;;;;;;;5061746;28;20177;-70
2021/05/02 11:37:40;;;;;;;1.65;1.00;;;;;;;;;;5061708;28;20638;-70
2021/05/02 11:40:25;;;;;;;2.17;1.20;;;;;;;;;;5055945;28;20218;-70
2021/05/02 11:42:51;;;;;;;2.80;1.05;;;;;;;;;;5069630;28;20196;-69
2021/05/02 11:45:17;;;;;;;0.73;0.73;;;;;;;;;;5059050;28;20550;-70
2021/05/02 11:47:42;;;;;;;2.58;0.80;;;;;;;;;;5060444;28;20177;-70
2021/05/02 11:50:08;;;;;;;1.35;0.80;;;;;;;;;;5061098;28;20714;-70
2021/05/02 11:52:42;;;;;;;1.95;0.90;;;;;;;;;;5058463;28;20205;-69
2021/05/02 11:55:24;;;;;;;1.70;0.90;;;;;;;;;;5060597;28;20180;-70
2021/05/02 11:57:49;;;;;;;1.83;1.13;;;;;;;;;;5064145;28;20180;-70
2021/05/02 12:00:14;;;;;;;2.50;1.20;;;;;;;;;;5059292;28;20201;-68
2021/05/02 12:02:43;;;;;;;2.78;1.20;;;;;;;;;;5059727;28;20993;-69
2021/05/02 12:05:08;;;;;;;2.40;1.30;;;;;;;;;;5060611;28;20182;-69
2021/05/02 12:07:33;;;;;;;1.70;1.10;;;;;;;;;;5064040;28;20184;-69
2021/05/02 12:09:58;;;;;;;2.88;1.15;;;;;;;;;;5063709;28;20264;-70
2021/05/02 12:12:36;;;;;;;2.47;1.20;;;;;;;;;;5063067;28;20543;-69
2021/05/02 12:15:01;;;;;;;2.70;0.80;;;;;;;;;;5058697;28;20213;-69
2021/05/02 12:17:26;;;;;;;2.50;0.90;;;;;;;;;;5061157;28;20673;-69
2021/05/02 12:19:54;;;;;;;3.33;0.90;;;;;;;;;;5058600;28;20216;-70
2021/05/02 12:22:19;;;;;;;1.83;1.20;;;;;;;;;;5060811;28;20219;-70
2021/05/02 12:24:47;;;;;;;1.47;0.97;;;;;;;;;;5058915;28;20714;-69
2021/05/02 12:27:14;;;;;;;1.53;1.10;;;;;;;;;;5060737;28;20181;-70
2021/05/02 12:29:42;;;;;;;2.63;1.10;;;;;;;;;;5057298;28;20189;-70
2021/05/02 12:32:11;;;;;;;1.20;1.00;;;;;;;;;;5062559;28;20675;-70
2021/05/02 12:34:43;;;;;;;1.93;1.30;;;;;;;;;;5059888;28;20643;-70
2021/05/02 12:37:17;;;;;;;2.20;1.10;;;;;;;;;;5064806;28;20634;-71
2021/05/02 12:39:42;;;;;;;1.65;1.10;;;;;;;;;;5061498;28;20217;-72
2021/05/02 12:42:08;;;;;;;1.42;0.80;;;;;;;;;;5057981;28;20690;-70
2021/05/02 12:44:34;;;;;;;1.35;1.00;;;;;;;;;;5059628;28;20521;-69
2021/05/02 12:47:00;;;;;;;1.35;1.00;;;;;;;;;;5066956;28;20182;-69
2021/05/02 12:49:26;;;;;;;3.50;2.72;;;;;;;;;;5064976;28;20262;-70
2021/05/02 12:51:56;;;;;;;2.03;1.20;;;;;;;;;;5060914;28;20201;-70
2021/05/02 12:54:28;;;;;;;1.13;0.83;;;;;;;;;;5060554;28;20564;-70
2021/05/02 12:57:00;;;;;;;1.13;0.80;;;;;;;;;;5057426;28;20605;-69
2021/05/02 12:59:28;;;;;;;4.20;1.60;;;;;;;;;;5065005;28;20225;-73
2021/05/02 13:02:01;;;;;;;1.30;1.10;;;;;;;;;;5055288;28;20197;-70
2021/05/02 13:05:02;;;;;;;2.13;1.10;;;;;;;;;;5056374;28;20558;-70
2021/05/02 13:07:31;;;;;;;2.70;1.10;;;;;;;;;;5063369;28;20181;-69
2021/05/02 13:09:57;;;;;;;1.73;1.20;;;;;;;;;;5061224;28;20227;-71
2021/05/02 13:12:23;;;;;;;2.28;1.10;;;;;;;;;;5064385;28;20193;-70
2021/05/02 13:15:03;;;;;;;1.67;1.58;;;;;;;;;;5060524;28;20264;-71
2021/05/02 13:17:28;;;;;;;1.88;1.17;;;;;;;;;;5061209;28;20641;-70
2021/05/02 13:19:57;;;;;;;1.87;1.00;;;;;;;;;;5052439;28;20254;-71
2021/05/02 13:22:24;;;;;;;3.30;1.00;;;;;;;;;;5063480;28;20685;-70
2021/05/02 13:24:56;;;;;;;4.00;1.20;;;;;;;;;;5058775;28;20536;-71
2021/05/02 13:27:30;;;;;;;2.77;1.87;;;;;;;;;;5058402;28;20192;-70
2021/05/02 13:29:56;;;;;;;1.60;1.40;;;;;;;;;;5063484;28;20188;-71
2021/05/02 13:32:21;;;;;;;2.87;1.37;;;;;;;;;;5061073;28;20706;-69
2021/05/02 13:34:46;;;;;;;3.17;1.10;;;;;;;;;;5060178;28;20189;-68
2021/05/02 13:37:11;;;;;;;3.00;1.93;;;;;;;;;;5062374;28;20190;-68
2021/05/02 13:39:36;;;;;;;3.07;2.13;;;;;;;;;;5059774;28;20235;-69
2021/05/02 13:42:05;;;;;;;1.63;1.20;;;;;;;;;;5060975;28;20222;-69
2021/05/02 13:44:30;;;;;;;1.07;0.90;;;;;;;;;;5056082;28;20177;-70
2021/05/02 13:46:56;;;;;;;1.30;1.07;;;;;;;;;;5064950;28;20177;-69
2021/05/02 13:49:22;;;;;;;1.43;0.90;;;;;;;;;;5057247;28;20224;-70
2021/05/02 13:51:49;;;;;;;2.27;1.33;;;;;;;;;;5064519;28;20681;-70
2021/05/02 13:54:14;;;;;;;2.83;1.20;;;;;;;;;;5062209;28;20189;-72
2021/05/02 13:56:39;;;;;;;1.30;0.87;;;;;;;;;;5056003;28;20185;-70
2021/05/02 13:59:05;;;;;;;0.60;0.60;;;;;;;;;;5059565;28;20226;-71
2021/05/02 14:01:31;;;;;;;0.90;0.80;;;;;;;;;;5062891;28;20197;-69
2021/05/02 14:03:56;;;;;;;1.03;0.90;;;;;;;;;;5059600;28;20180;-72
2021/05/02 14:06:22;;;;;;;2.20;0.93;;;;;;;;;;5058308;28;20184;-72
2021/05/02 14:08:47;;;;;;;1.67;0.83;;;;;;;;;;5058547;28;20264;-72
2021/05/02 14:11:13;;;;;;;3.07;0.93;;;;;;;;;;5065261;28;20295;-70
2021/05/02 14:13:38;;;;;;;2.13;1.00;;;;;;;;;;5061629;28;20184;-69
2021/05/02 14:16:04;;;;;;;1.20;0.73;;;;;;;;;;5067659;28;20181;-69
2021/05/02 14:18:29;;;;;;;1.25;0.80;;;;;;;;;;5060841;28;20211;-71
2021/05/02 14:20:54;;;;;;;1.55;0.80;;;;;;;;;;5060162;28;20266;-70
2021/05/02 14:23:20;;;;;;;1.13;0.80;;;;;;;;;;5056347;28;20173;-71
2021/05/02 14:25:49;;;;;;;2.40;1.00;;;;;;;;;;5066693;28;20619;-70
2021/05/02 14:28:14;;;;;;;1.35;1.00;;;;;;;;;;5060680;28;20185;-69
2021/05/02 14:30:39;;;;;;;1.77;1.20;;;;;;;;;;5065559;28;20181;-71
2021/05/02 14:33:05;;;;;;;1.45;0.90;;;;;;;;;;5062943;28;20197;-71
2021/05/02 14:35:30;;;;;;;2.13;0.80;;;;;;;;;;5062173;28;20186;-70
2021/05/02 14:37:55;;;;;;;1.15;0.50;;;;;;;;;;5070417;28;20565;-70
2021/05/02 14:40:20;;;;;;;1.35;0.95;;;;;;;;;;5066861;28;20346;-71
2021/05/02 14:42:46;;;;;;;0.88;0.65;;;;;;;;;;5065910;28;20193;-70
2021/05/02 14:45:16;;;;;;;1.70;0.70;;;;;;;;;;5067346;28;20177;-69
2021/05/02 14:47:42;;;;;;;1.70;0.95;;;;;;;;;;5063409;28;20219;-70